Time;durP1;ratioP1;P1;durP2;ratioP2;P2;SDS_P1;SDS_P2;PMS_P1;PMS_P2;Temp;Humidity;BMP_temperature;BMP_pressure;BME280_temperature;BME280_humidity;BME280_pressure;Samples;Min_cycle;Max_cycle;Signal;HPM_P1;HPM_P2
2023/01/03 00:01:35;;;;;;;16.77;10.40;;;7.30;99.90;;;;;;5043324;28;20134;-40
2023/01/03 00:04:01;;;;;;;17.67;10.45;;;7.20;99.90;;;;;;5043452;28;20051;-39
2023/01/03 00:06:35;;;;;;;16.70;10.50;;;7.20;99.90;;;;;;5043389;28;20084;-38
2023/01/03 00:09:03;;;;;;;17.27;10.48;;;7.20;99.90;;;;;;5023340;28;20745;-37
2023/01/03 00:12:22;;;;;;;15.40;11.38;;;7.10;99.90;;;;;;5037634;28;20052;-37
2023/01/03 00:14:34;;;;;;;14.55;10.98;;;7.20;99.90;;;;;;5023836;28;20115;-39
2023/01/03 00:17:01;;;;;;;14.40;11.20;;;7.20;99.90;;;;;;5040649;28;20748;-41
2023/01/03 00:19:32;;;;;;;16.73;10.77;;;7.20;99.90;;;;;;5042802;28;20028;-39
2023/01/03 00:21:57;;;;;;;16.92;11.10;;;7.20;99.90;;;;;;5042965;28;20029;-39
2023/01/03 00:24:23;;;;;;;13.35;10.60;;;7.10;99.90;;;;;;5043325;28;20029;-39
2023/01/03 00:26:52;;;;;;;15.57;10.55;;;7.10;99.90;;;;;;5042639;28;20021;-41
2023/01/03 00:29:17;;;;;;;15.30;10.95;;;7.10;99.90;;;;;;5046152;28;20025;-40
2023/01/03 00:31:43;;;;;;;13.48;11.13;;;7.10;99.90;;;;;;5048093;28;20460;-40
2023/01/03 00:34:09;;;;;;;13.93;10.73;;;7.10;99.90;;;;;;5046190;28;20132;-39
2023/01/03 00:36:35;;;;;;;16.42;11.73;;;7.10;99.90;;;;;;5047527;28;20021;-39
2023/01/03 00:39:00;;;;;;;14.90;10.68;;;7.10;99.90;;;;;;5047591;28;20040;-39
2023/01/03 00:41:26;;;;;;;15.98;11.68;;;7.10;99.90;;;;;;5046498;28;20025;-40
2023/01/03 00:43:52;;;;;;;17.02;11.40;;;7.10;99.90;;;;;;5047935;28;20045;-40
2023/01/03 00:46:19;;;;;;;16.20;10.23;;;7.00;99.90;;;;;;5045704;28;20103;-38
2023/01/03 00:48:45;;;;;;;15.43;11.25;;;7.00;99.90;;;;;;5046867;28;20517;-39
2023/01/03 00:51:17;;;;;;;16.60;10.55;;;7.00;99.90;;;;;;5046568;28;20119;-37
2023/01/03 00:53:44;;;;;;;17.20;11.60;;;7.00;99.90;;;;;;5042570;28;20052;-39
2023/01/03 00:56:13;;;;;;;19.30;11.38;;;7.00;99.90;;;;;;5046222;28;20473;-39
2023/01/03 00:58:39;;;;;;;16.35;11.13;;;6.90;99.90;;;;;;5046113;28;20049;-40
2023/01/03 01:01:13;;;;;;;14.77;11.65;;;6.90;99.90;;;;;;5046083;28;20747;-40
2023/01/03 01:03:42;;;;;;;15.55;11.40;;;6.90;99.90;;;;;;5046438;28;20071;-37
2023/01/03 01:06:15;;;;;;;15.65;10.60;;;7.00;99.90;;;;;;5046522;28;20427;-40
2023/01/03 01:08:42;;;;;;;14.18;11.38;;;7.00;99.90;;;;;;5046616;28;20106;-37
2023/01/03 01:11:08;;;;;;;16.70;11.68;;;7.10;99.90;;;;;;5046602;28;20025;-40
2023/01/03 01:13:35;;;;;;;14.43;11.23;;;7.10;99.90;;;;;;5046232;28;20122;-36
2023/01/03 01:16:06;;;;;;;13.45;10.90;;;7.20;99.90;;;;;;5047388;28;20036;-39
2023/01/03 01:18:32;;;;;;;16.60;11.68;;;7.30;99.90;;;;;;5048375;28;20047;-37
2023/01/03 01:20:58;;;;;;;14.27;11.27;;;7.30;99.90;;;;;;5049299;28;20024;-35
2023/01/03 01:23:24;;;;;;;14.77;11.00;;;7.40;99.90;;;;;;5046662;28;20559;-39
2023/01/03 01:25:49;;;;;;;16.02;11.55;;;7.40;99.90;;;;;;5046878;28;20024;-37
2023/01/03 01:28:15;;;;;;;18.50;11.02;;;7.40;99.90;;;;;;5045635;28;20112;-38
2023/01/03 01:30:40;;;;;;;13.57;10.85;;;7.50;99.90;;;;;;5045813;28;20028;-38
2023/01/03 01:33:06;;;;;;;13.27;10.80;;;7.40;99.90;;;;;;5045589;28;20025;-40
2023/01/03 01:35:31;;;;;;;16.02;11.10;;;7.50;99.90;;;;;;5046003;28;20028;-39
2023/01/03 01:37:57;;;;;;;15.45;10.65;;;7.40;99.90;;;;;;5046684;28;20087;-38
2023/01/03 01:40:23;;;;;;;12.07;9.65;;;7.40;99.90;;;;;;5044566;28;20021;-38
2023/01/03 01:45:34;;;;;;;13.90;10.13;;;7.30;99.90;;;;;;5046246;28;20040;-40
2023/01/03 01:48:05;;;;;;;14.00;10.73;;;7.20;99.90;;;;;;5045398;28;20392;-40
2023/01/03 01:50:41;;;;;;;13.65;10.43;;;7.20;99.90;;;;;;5044925;28;20040;-41
2023/01/03 01:53:17;;;;;;;16.13;10.95;;;7.10;99.90;;;;;;5045839;28;20099;-40
2023/01/03 01:55:47;;;;;;;14.18;10.73;;;7.00;99.90;;;;;;5045203;28;20570;-40
2023/01/03 01:58:13;;;;;;;15.48;11.45;;;7.00;99.90;;;;;;5044565;28;20041;-41
2023/01/03 02:00:40;;;;;;;15.55;11.13;;;7.00;99.90;;;;;;5045923;28;20550;-40
2023/01/03 02:03:07;;;;;;;16.42;12.00;;;7.00;99.90;;;;;;5045279;28;20025;-40
2023/01/03 02:05:35;;;;;;;18.85;12.10;;;7.00;99.90;;;;;;5045124;28;20037;-38
2023/01/03 02:08:02;;;;;;;19.70;12.45;;;7.00;99.90;;;;;;5045151;28;20025;-39
2023/01/03 02:11:00;;;;;;;24.63;11.73;;;7.00;99.90;;;;;;5045304;28;20099;-39
2023/01/03 02:13:35;;;;;;;18.52;11.70;;;7.10;99.90;;;;;;5037251;28;20029;-38
2023/01/03 02:16:38;;;;;;;16.00;11.85;;;7.00;99.90;;;;;;5040892;28;20017;-39
2023/01/03 02:19:06;;;;;;;15.40;11.77;;;7.10;99.90;;;;;;5044424;28;20033;-35
2023/01/03 02:22:11;;;;;;;18.42;12.75;;;7.10;99.90;;;;;;5044945;28;20115;-39
2023/01/03 02:25:10;;;;;;;18.23;12.35;;;7.10;99.90;;;;;;5036175;28;20044;-39
2023/01/03 02:28:11;;;;;;;16.38;12.43;;;7.10;99.90;;;;;;5037341;28;20068;-38
2023/01/03 02:30:41;;;;;;;16.25;13.02;;;7.20;99.90;;;;;;5045497;28;20117;-40
2023/01/03 02:33:30;;;;;;;14.93;12.20;;;7.20;99.90;;;;;;5043915;28;20381;-41
2023/01/03 02:36:04;;;;;;;16.35;12.93;;;7.20;99.90;;;;;;5045180;28;20025;-39
2023/01/03 02:38:52;;;;;;;15.52;12.10;;;7.30;99.90;;;;;;5044774;28;20158;-40
2023/01/03 02:41:31;;;;;;;16.05;11.45;;;7.30;99.90;;;;;;5044364;28;20013;-40
2023/01/03 02:44:15;;;;;;;15.40;12.00;;;7.20;99.90;;;;;;5044780;28;20126;-38
2023/01/03 02:47:02;;;;;;;14.63;11.75;;;7.30;99.90;;;;;;5044407;28;20067;-40
2023/01/03 02:49:50;;;;;;;14.52;11.23;;;7.30;99.90;;;;;;5024940;28;20063;-40
2023/01/03 02:52:26;;;;;;;14.40;11.35;;;7.30;99.90;;;;;;5042637;28;20027;-38
2023/01/03 02:55:10;;;;;;;15.95;12.32;;;7.30;99.90;;;;;;5044850;28;20028;-37
2023/01/03 02:57:41;;;;;;;16.13;11.90;;;7.30;99.90;;;;;;5045731;28;20032;-36
2023/01/03 03:00:11;;;;;;;15.52;12.43;;;7.30;99.90;;;;;;5044268;28;20025;-39
2023/01/03 03:02:43;;;;;;;14.18;11.70;;;7.30;99.90;;;;;;5045019;28;20079;-40
2023/01/03 03:05:14;;;;;;;15.23;12.38;;;7.30;99.90;;;;;;5044649;28;20021;-40
2023/01/03 03:07:39;;;;;;;15.90;12.18;;;7.30;99.90;;;;;;5043502;28;20025;-40
2023/01/03 03:13:15;;;;;;;17.73;13.15;;;7.40;99.90;;;;;;5044945;28;20064;-40
2023/01/03 03:16:46;;;;;;;17.23;13.23;;;7.40;99.90;;;;;;5044310;28;20013;-38
2023/01/03 03:19:12;;;;;;;16.58;12.88;;;7.40;99.90;;;;;;5032913;28;20112;-40
2023/01/03 03:30:03;;;;;;;16.42;13.40;;;7.50;99.90;;;;;;5043298;28;20776;-37
2023/01/03 03:32:32;;;;;;;17.65;13.95;;;7.50;99.90;;;;;;5044006;28;20024;-40
2023/01/03 03:35:00;;;;;;;19.58;13.27;;;7.50;99.90;;;;;;5043319;28;20457;-39
2023/01/03 03:37:28;;;;;;;17.10;14.00;;;7.50;99.90;;;;;;5044084;28;20037;-40
2023/01/03 03:46:01;;;;;;;20.85;14.48;;;7.40;99.90;;;;;;5043712;28;20032;-40
2023/01/03 03:51:28;;;;;;;16.92;14.32;;;7.40;99.90;;;;;;5023314;28;20112;-38
2023/01/03 03:53:55;;;;;;;19.10;14.18;;;7.40;99.90;;;;;;5038665;28;20033;-40
2023/01/03 03:56:27;;;;;;;16.60;13.77;;;7.40;99.90;;;;;;5042671;28;20033;-40
2023/01/03 03:58:56;;;;;;;18.05;14.00;;;7.30;99.90;;;;;;5043667;28;20641;-38
2023/01/03 04:01:24;;;;;;;20.15;14.75;;;7.30;99.90;;;;;;5043810;28;20103;-37
2023/01/03 04:03:52;;;;;;;21.40;15.30;;;7.30;99.90;;;;;;5048535;28;20082;-40
2023/01/03 04:06:31;;;;;;;16.63;14.27;;;7.20;99.90;;;;;;5050348;28;20021;-41
2023/01/03 04:08:57;;;;;;;21.00;15.02;;;7.30;99.90;;;;;;5049721;28;20033;-36
2023/01/03 04:11:22;;;;;;;19.15;14.35;;;7.20;99.90;;;;;;5049450;28;20036;-40
2023/01/03 04:13:48;;;;;;;19.27;15.02;;;7.20;99.90;;;;;;5050970;28;20036;-39
2023/01/03 04:16:14;;;;;;;17.38;13.82;;;7.20;99.90;;;;;;5050025;28;20826;-39
2023/01/03 04:18:39;;;;;;;18.63;13.93;;;7.20;99.90;;;;;;5049862;28;20500;-38
2023/01/03 04:21:05;;;;;;;17.45;14.32;;;7.10;99.90;;;;;;5049498;28;20496;-38
2023/01/03 04:23:30;;;;;;;17.10;13.73;;;7.10;99.90;;;;;;5049881;28;20364;-39
2023/01/03 04:25:56;;;;;;;15.98;13.95;;;7.10;99.90;;;;;;5049980;28;20120;-39
2023/01/03 04:28:21;;;;;;;18.30;13.43;;;7.10;99.90;;;;;;5049673;28;20063;-39
2023/01/03 04:30:47;;;;;;;16.88;12.88;;;7.10;99.90;;;;;;5050560;28;20119;-38
2023/01/03 04:33:13;;;;;;;15.93;12.27;;;7.10;99.90;;;;;;5048314;28;20514;-39
2023/01/03 04:35:38;;;;;;;15.55;12.18;;;7.00;99.90;;;;;;5049712;28;20029;-40
2023/01/03 04:38:04;;;;;;;14.10;12.27;;;7.00;99.90;;;;;;5049069;28;20797;-40
2023/01/03 04:40:32;;;;;;;14.85;11.38;;;7.00;99.90;;;;;;5049563;28;20078;-38
2023/01/03 04:45:47;;;;;;;14.07;12.05;;;7.00;99.90;;;;;;5049210;28;20040;-39
2023/01/03 04:48:13;;;;;;;15.23;11.68;;;6.90;99.90;;;;;;5050013;28;20071;-39
2023/01/03 04:50:38;;;;;;;16.27;11.90;;;6.90;99.90;;;;;;5049754;28;20057;-39
2023/01/03 04:53:04;;;;;;;14.32;11.32;;;6.90;99.90;;;;;;5049243;28;20726;-40
2023/01/03 04:55:30;;;;;;;14.02;10.95;;;6.90;99.90;;;;;;5049963;28;20405;-41
2023/01/03 04:57:58;;;;;;;14.82;11.68;;;6.90;99.90;;;;;;5050690;28;20495;-40
2023/01/03 05:00:23;;;;;;;13.88;11.68;;;6.90;99.90;;;;;;5048846;28;20024;-40
2023/01/03 05:02:49;;;;;;;14.00;11.10;;;6.80;99.90;;;;;;5050270;28;20092;-41
2023/01/03 05:05:14;;;;;;;13.27;11.07;;;6.70;99.90;;;;;;5049237;28;20025;-39
2023/01/03 05:07:40;;;;;;;12.93;10.90;;;6.60;99.90;;;;;;5049213;28;20033;-40
2023/01/03 05:10:06;;;;;;;15.45;10.80;;;6.60;99.90;;;;;;5049061;28;20029;-39
2023/01/03 05:12:31;;;;;;;16.02;10.82;;;6.60;99.90;;;;;;5049766;28;20028;-38
2023/01/03 05:14:57;;;;;;;12.45;10.73;;;6.50;99.90;;;;;;5046743;28;20067;-39
2023/01/03 05:17:22;;;;;;;13.27;10.23;;;6.50;99.90;;;;;;5046090;28;20497;-39
2023/01/03 05:28:04;;;;;;;13.55;10.60;;;6.30;99.90;;;;;;5043420;28;20079;-40
2023/01/03 05:30:30;;;;;;;12.07;10.55;;;6.20;99.90;;;;;;5046318;28;20083;-40
2023/01/03 05:32:56;;;;;;;14.38;10.95;;;6.10;99.90;;;;;;5046370;28;20017;-39
2023/01/03 05:35:22;;;;;;;13.25;10.85;;;6.10;99.90;;;;;;5045054;28;20067;-39
2023/01/03 05:37:47;;;;;;;13.35;11.07;;;6.00;99.90;;;;;;5046205;28;20045;-38
2023/01/03 05:40:19;;;;;;;13.27;10.60;;;6.00;99.90;;;;;;5046255;28;20412;-38
2023/01/03 05:42:44;;;;;;;14.48;10.80;;;5.90;99.90;;;;;;5045157;28;20072;-38
2023/01/03 05:45:10;;;;;;;12.82;10.25;;;5.90;99.90;;;;;;5046128;28;20502;-39
2023/01/03 05:47:36;;;;;;;13.68;10.45;;;5.80;99.90;;;;;;5045897;28;20035;-37
2023/01/03 05:50:01;;;;;;;13.60;10.43;;;5.80;99.90;;;;;;5045593;28;20460;-40
2023/01/03 05:52:27;;;;;;;14.90;10.65;;;5.80;99.90;;;;;;5045880;28;20143;-36
2023/01/03 05:54:52;;;;;;;11.73;10.48;;;5.80;99.90;;;;;;5046468;28;20492;-34
2023/01/03 05:57:18;;;;;;;11.85;10.57;;;5.70;99.90;;;;;;5045031;28;20767;-36
2023/01/03 05:59:43;;;;;;;12.15;10.40;;;5.70;99.90;;;;;;5045665;28;20789;-40
2023/01/03 06:02:09;;;;;;;15.55;11.07;;;5.70;99.90;;;;;;5045406;28;20025;-37
2023/01/03 06:04:34;;;;;;;13.00;10.30;;;5.60;99.90;;;;;;5045309;28;20075;-38
2023/01/03 06:07:00;;;;;;;14.82;11.75;;;5.60;99.90;;;;;;5044997;28;20455;-39
2023/01/03 06:09:25;;;;;;;14.35;10.45;;;5.60;99.90;;;;;;5045637;28;20056;-39
2023/01/03 06:11:54;;;;;;;12.82;10.40;;;5.60;99.90;;;;;;5044789;28;20094;-36
2023/01/03 06:14:19;;;;;;;13.52;10.00;;;5.50;99.90;;;;;;5045054;28;20821;-40
2023/01/03 06:19:49;;;;;;;14.35;9.95;;;5.50;99.90;;;;;;5031226;28;20044;-40
2023/01/03 06:22:15;;;;;;;14.80;9.68;;;5.50;99.90;;;;;;5041152;28;20029;-41
2023/01/03 06:24:40;;;;;;;11.15;9.05;;;5.50;99.90;;;;;;5035700;28;20047;-40
2023/01/03 06:27:06;;;;;;;13.23;10.07;;;5.50;99.90;;;;;;5044793;28;20067;-40
2023/01/03 06:29:31;;;;;;;13.88;10.90;;;5.50;99.90;;;;;;5045733;28;20037;-39
2023/01/03 06:31:57;;;;;;;13.25;10.05;;;5.50;99.90;;;;;;5045472;28;20461;-40
2023/01/03 06:34:22;;;;;;;13.43;10.25;;;5.50;99.90;;;;;;5045219;28;20506;-39
2023/01/03 06:36:48;;;;;;;14.63;10.75;;;5.50;99.90;;;;;;5044706;28;20021;-40
2023/01/03 06:39:13;;;;;;;10.60;9.18;;;5.50;99.90;;;;;;5043742;28;20705;-40
2023/01/03 06:41:39;;;;;;;14.15;9.50;;;5.60;99.90;;;;;;5045264;28;20510;-38
2023/01/03 06:44:04;;;;;;;12.55;10.45;;;5.70;99.90;;;;;;5044004;28;20048;-39
2023/01/03 06:54:47;;;;;;;12.57;10.25;;;5.70;99.90;;;;;;5044570;28;20080;-41
2023/01/03 06:57:13;;;;;;;15.07;11.50;;;5.70;99.90;;;;;;5044161;28;20064;-39
2023/01/03 06:59:41;;;;;;;14.93;10.95;;;5.60;99.90;;;;;;5043249;28;20021;-37
2023/01/03 07:02:07;;;;;;;12.82;10.10;;;5.60;99.90;;;;;;5043998;28;20109;-39
2023/01/03 07:04:35;;;;;;;17.65;11.55;;;5.60;99.90;;;;;;5044766;28;20458;-40
2023/01/03 07:07:01;;;;;;;14.43;11.18;;;5.50;99.90;;;;;;5043845;28;20384;-39
2023/01/03 07:09:27;;;;;;;15.43;11.00;;;5.50;99.90;;;;;;5044312;28;20036;-39
2023/01/03 07:11:52;;;;;;;15.25;10.60;;;5.50;99.90;;;;;;5044476;28;20016;-37
2023/01/03 07:14:18;;;;;;;17.33;10.88;;;5.40;99.90;;;;;;5043102;28;20037;-41
2023/01/03 07:16:46;;;;;;;15.57;9.85;;;5.40;99.90;;;;;;5044698;28;20025;-38
2023/01/03 07:19:15;;;;;;;16.08;11.50;;;5.40;99.90;;;;;;5043697;28;20039;-40
2023/01/03 07:21:41;;;;;;;14.90;11.10;;;5.40;99.90;;;;;;5043886;28;20032;-37
2023/01/03 07:24:09;;;;;;;17.02;11.00;;;5.40;99.90;;;;;;5043748;28;20083;-40
2023/01/03 07:26:35;;;;;;;13.43;10.15;;;5.40;99.90;;;;;;5043889;28;20028;-40
2023/01/03 07:29:03;;;;;;;14.93;10.18;;;5.40;99.90;;;;;;5043528;28;20029;-39
2023/01/03 07:31:31;;;;;;;12.43;9.27;;;5.40;99.90;;;;;;5043754;28;20020;-40
2023/01/03 07:33:57;;;;;;;16.60;10.18;;;5.40;99.90;;;;;;5044117;28;20136;-38
2023/01/03 07:36:23;;;;;;;17.17;10.43;;;5.50;99.90;;;;;;5043041;28;20500;-39
2023/01/03 07:38:48;;;;;;;14.30;10.40;;;5.50;99.90;;;;;;5043804;28;20024;-40
2023/01/03 07:41:15;;;;;;;13.88;10.65;;;5.60;99.90;;;;;;5043168;28;20025;-40
2023/01/03 07:43:45;;;;;;;12.70;10.68;;;5.60;99.90;;;;;;5044583;28;20358;-36
2023/01/03 07:46:20;;;;;;;11.73;9.32;;;5.70;99.90;;;;;;5043300;28;20055;-38
2023/01/03 07:48:47;;;;;;;12.68;9.40;;;5.70;99.90;;;;;;5042978;28;20534;-39
2023/01/03 07:51:15;;;;;;;15.93;10.13;;;5.80;99.90;;;;;;5042788;28;20021;-37
2023/01/03 07:53:41;;;;;;;13.45;10.13;;;5.80;99.90;;;;;;5044553;28;20029;-41
2023/01/03 07:56:12;;;;;;;12.25;9.50;;;5.90;99.90;;;;;;5042262;28;20048;-40
2023/01/03 07:58:39;;;;;;;12.32;9.60;;;5.90;99.90;;;;;;5044477;28;20554;-38
2023/01/03 08:01:25;;;;;;;13.18;9.60;;;6.00;99.90;;;;;;5043364;28;20013;-38
2023/01/03 08:03:51;;;;;;;12.80;9.55;;;6.00;99.90;;;;;;5044527;28;20874;-35
2023/01/03 08:06:20;;;;;;;13.13;9.60;;;6.10;99.90;;;;;;5046622;28;20024;-36
2023/01/03 08:13:16;;;;;;;12.07;9.40;;;6.10;99.90;;;;;;5047921;28;20032;-39
2023/01/03 08:14:15;;;;;;;14.73;10.60;;;6.20;99.90;;;;;;5043642;28;20124;-39
2023/01/03 08:16:41;;;;;;;11.85;9.73;;;6.20;99.90;;;;;;5043550;28;20203;-38
2023/01/03 08:19:06;;;;;;;11.82;9.15;;;6.20;99.90;;;;;;5043418;28;20388;-39
2023/01/03 08:21:32;;;;;;;11.85;9.38;;;6.20;99.90;;;;;;5043512;28;20487;-39
2023/01/03 08:23:57;;;;;;;10.95;9.15;;;6.20;99.90;;;;;;5042904;28;20036;-40
2023/01/03 08:26:23;;;;;;;11.60;9.13;;;6.20;99.90;;;;;;5043017;28;20040;-40
2023/01/03 08:28:48;;;;;;;10.45;8.90;;;6.30;99.90;;;;;;5043389;28;20029;-40
2023/01/03 08:31:17;;;;;;;11.20;9.00;;;6.30;99.90;;;;;;5042188;28;20025;-40
2023/01/03 08:33:59;;;;;;;12.23;9.60;;;6.40;99.90;;;;;;5043182;28;20057;-39
2023/01/03 08:36:27;;;;;;;11.63;8.90;;;6.30;99.90;;;;;;5043550;28;20039;-40
2023/01/03 08:38:58;;;;;;;13.10;9.73;;;6.40;99.90;;;;;;5042143;28;20040;-37
2023/01/03 08:41:29;;;;;;;14.88;8.80;;;6.40;99.90;;;;;;5043218;28;20144;-36
2023/01/03 08:43:58;;;;;;;9.85;8.40;;;6.50;99.90;;;;;;5042695;28;20037;-38
2023/01/03 08:46:24;;;;;;;8.52;7.57;;;6.50;99.90;;;;;;5042665;28;20044;-37
2023/01/03 08:48:49;;;;;;;10.43;8.05;;;6.50;99.90;;;;;;5044005;28;20028;-37
2023/01/03 08:51:15;;;;;;;8.88;7.47;;;6.50;99.90;;;;;;5046540;28;20071;-40
2023/01/03 08:53:40;;;;;;;9.15;7.70;;;6.50;99.90;;;;;;5046982;28;20060;-39
2023/01/03 08:56:06;;;;;;;8.60;7.15;;;6.60;99.90;;;;;;5046540;28;20132;-40
2023/01/03 08:58:35;;;;;;;10.02;7.53;;;6.50;99.90;;;;;;5045776;28;20028;-39
2023/01/03 09:01:02;;;;;;;13.52;7.90;;;6.60;99.90;;;;;;5046746;28;20021;-40
2023/01/03 09:03:28;;;;;;;11.55;8.43;;;6.50;99.90;;;;;;5047049;28;20029;-39
2023/01/03 09:05:59;;;;;;;12.18;7.93;;;6.60;99.90;;;;;;5046479;28;20778;-39
2023/01/03 09:08:25;;;;;;;10.35;7.07;;;6.50;99.90;;;;;;5046929;28;20487;-40
2023/01/03 09:10:50;;;;;;;9.60;7.00;;;6.60;99.90;;;;;;5047094;28;20029;-39
2023/01/03 09:13:16;;;;;;;8.52;6.20;;;6.60;99.90;;;;;;5045493;28;20036;-40
2023/01/03 09:15:41;;;;;;;8.88;6.60;;;6.70;99.90;;;;;;5046728;28;20035;-37
2023/01/03 09:18:07;;;;;;;7.45;6.35;;;6.70;99.90;;;;;;5046423;28;20036;-41
2023/01/03 09:20:33;;;;;;;8.07;6.47;;;6.70;99.90;;;;;;5046319;28;20030;-40
2023/01/03 09:22:59;;;;;;;8.55;6.60;;;6.80;99.90;;;;;;5046212;28;20583;-40
2023/01/03 09:25:24;;;;;;;10.43;7.05;;;6.90;99.90;;;;;;5045971;28;20025;-34
2023/01/03 09:27:50;;;;;;;10.20;7.75;;;6.90;99.90;;;;;;5045308;28;20036;-40
2023/01/03 09:30:16;;;;;;;9.75;7.28;;;7.00;99.90;;;;;;5045795;28;20033;-38
2023/01/03 09:32:41;;;;;;;8.50;6.70;;;7.00;99.90;;;;;;5046244;28;20020;-38
2023/01/03 09:35:08;;;;;;;8.60;6.55;;;7.10;99.90;;;;;;5044783;28;20482;-39
2023/01/03 09:37:33;;;;;;;13.18;7.28;;;7.10;99.90;;;;;;5046077;28;20029;-40
2023/01/03 09:39:59;;;;;;;9.07;6.75;;;7.10;99.90;;;;;;5044928;28;20086;-40
2023/01/03 09:45:20;;;;;;;8.70;6.68;;;7.20;99.90;;;;;;5045625;28;20075;-40
2023/01/03 09:47:46;;;;;;;8.57;6.97;;;7.20;99.90;;;;;;5045242;28;20029;-39
2023/01/03 09:50:23;;;;;;;12.82;7.70;;;7.30;99.90;;;;;;5045298;28;20114;-39
2023/01/03 10:03:42;;;;;;;9.90;7.35;;;7.30;99.90;;;;;;5045562;28;20056;-40
2023/01/03 10:05:56;;;;;;;11.23;8.52;;;7.40;99.90;;;;;;5045260;28;20032;-38
2023/01/03 10:08:38;;;;;;;11.15;8.57;;;7.40;99.90;;;;;;5045544;28;20520;-40
2023/01/03 10:11:18;;;;;;;10.30;7.57;;;7.40;99.90;;;;;;5045055;28;20120;-39
2023/01/03 10:14:18;;;;;;;10.40;8.35;;;7.50;99.90;;;;;;5045626;28;20025;-38
2023/01/03 10:17:07;;;;;;;11.25;7.78;;;7.50;99.90;;;;;;5044879;28;20166;-39
2023/01/03 10:19:55;;;;;;;9.63;7.47;;;7.60;99.90;;;;;;5025943;28;20173;-38
2023/01/03 10:22:26;;;;;;;10.32;7.63;;;7.70;99.90;;;;;;5044462;28;20025;-40
2023/01/03 10:25:11;;;;;;;8.98;7.30;;;7.70;99.90;;;;;;5044772;28;20028;-40
2023/01/03 10:27:43;;;;;;;11.55;7.72;;;7.70;99.90;;;;;;5044657;28;20473;-39
2023/01/03 10:30:26;;;;;;;9.18;6.32;;;7.80;99.90;;;;;;5044407;28;20389;-39
2023/01/03 10:33:07;;;;;;;11.35;7.65;;;7.80;99.90;;;;;;5043730;28;20218;-40
2023/01/03 10:35:35;;;;;;;8.23;6.60;;;7.80;99.90;;;;;;5044962;28;20076;-39
2023/01/03 10:38:00;;;;;;;10.15;7.55;;;7.80;99.90;;;;;;5043840;28;20120;-39
2023/01/03 10:40:43;;;;;;;10.35;7.15;;;7.90;99.90;;;;;;5045227;28;20104;-41
2023/01/03 10:43:31;;;;;;;11.07;7.30;;;7.90;99.90;;;;;;5044374;28;20104;-37
2023/01/03 10:46:00;;;;;;;8.70;6.40;;;7.90;99.90;;;;;;5044042;28;20040;-38
2023/01/03 10:48:46;;;;;;;8.30;7.22;;;7.90;99.90;;;;;;5044006;28;20033;-40
2023/01/03 10:51:32;;;;;;;8.60;6.80;;;8.00;99.90;;;;;;5043409;28;20380;-38
2023/01/03 10:54:00;;;;;;;9.02;7.28;;;8.00;99.90;;;;;;5042667;28;20103;-40
2023/01/03 10:56:29;;;;;;;9.25;7.07;;;8.00;99.90;;;;;;5045111;28;20108;-38
2023/01/03 10:59:18;;;;;;;8.10;5.78;;;8.10;99.90;;;;;;5040048;28;20036;-38
2023/01/03 11:02:15;;;;;;;10.40;7.05;;;8.10;99.90;;;;;;5044204;28;20502;-38
2023/01/03 11:04:41;;;;;;;10.75;7.57;;;8.10;99.90;;;;;;5034659;28;20515;-41
2023/01/03 11:07:06;;;;;;;10.18;7.03;;;8.20;99.90;;;;;;5043309;28;20369;-39
2023/01/03 11:09:44;;;;;;;10.27;7.18;;;8.20;99.90;;;;;;5044186;28;20070;-38
2023/01/03 11:12:32;;;;;;;8.70;6.70;;;8.20;99.90;;;;;;5043110;28;20124;-40
2023/01/03 11:15:00;;;;;;;9.18;6.50;;;8.30;99.90;;;;;;5033871;28;20045;-39
2023/01/03 11:17:27;;;;;;;9.85;6.60;;;8.30;99.90;;;;;;5044230;28;20427;-40
2023/01/03 11:19:57;;;;;;;7.20;6.07;;;8.30;99.90;;;;;;5043836;28;20037;-41
2023/01/03 11:22:35;;;;;;;9.40;6.82;;;8.30;99.90;;;;;;5044530;28;20028;-39
2023/01/03 11:25:11;;;;;;;9.45;7.10;;;8.30;99.90;;;;;;5043386;28;20476;-41
2023/01/03 11:27:57;;;;;;;10.98;6.95;;;8.30;99.90;;;;;;5043073;28;20033;-40
2023/01/03 11:30:27;;;;;;;10.50;6.90;;;8.30;99.90;;;;;;5032791;28;20029;-40
2023/01/03 11:33:01;;;;;;;9.50;6.60;;;8.30;99.90;;;;;;5044160;28;20029;-40
2023/01/03 11:35:41;;;;;;;7.38;6.07;;;8.40;99.90;;;;;;5043122;28;20102;-38
2023/01/03 11:38:36;;;;;;;8.90;5.90;;;8.40;99.90;;;;;;5043122;28;20040;-39
2023/01/03 11:41:19;;;;;;;9.18;5.93;;;8.50;99.90;;;;;;5034285;28;20527;-39
2023/01/03 11:44:24;;;;;;;7.38;5.72;;;8.50;99.90;;;;;;5044325;28;20055;-41
2023/01/03 11:47:09;;;;;;;9.10;6.00;;;8.50;99.90;;;;;;5044072;28;20472;-39
2023/01/03 11:50:05;;;;;;;9.05;6.32;;;8.40;99.90;;;;;;5043013;28;20029;-40
2023/01/03 11:52:44;;;;;;;9.63;6.90;;;8.40;99.90;;;;;;5024261;28;20099;-40
2023/01/03 11:55:35;;;;;;;8.13;5.93;;;8.40;99.90;;;;;;5039458;28;20048;-40
2023/01/03 11:58:32;;;;;;;7.80;5.55;;;8.40;99.90;;;;;;5023424;28;20142;-42
2023/01/03 12:01:12;;;;;;;9.75;6.38;;;8.40;99.90;;;;;;5039682;28;20036;-41
2023/01/03 12:03:58;;;;;;;10.13;6.70;;;8.50;99.90;;;;;;5043182;28;20053;-38
2023/01/03 12:06:43;;;;;;;9.43;6.57;;;8.40;99.90;;;;;;5041847;28;20786;-40
2023/01/03 12:09:23;;;;;;;10.27;7.43;;;8.50;99.90;;;;;;5042623;28;20036;-40
2023/01/03 12:12:08;;;;;;;7.95;6.30;;;8.50;99.90;;;;;;5033753;28;20035;-40
2023/01/03 12:14:45;;;;;;;9.30;7.53;;;8.50;99.90;;;;;;5044126;28;20033;-40
2023/01/03 12:18:02;;;;;;;8.48;7.10;;;8.50;99.90;;;;;;5042625;28;20112;-41
2023/01/03 12:20:42;;;;;;;9.07;6.68;;;8.60;99.90;;;;;;5034724;28;20037;-40
2023/01/03 12:23:14;;;;;;;8.50;6.07;;;8.60;99.90;;;;;;5042720;28;20086;-38
2023/01/03 12:25:49;;;;;;;8.32;6.68;;;8.60;99.90;;;;;;5047501;28;20021;-41
2023/01/03 12:28:23;;;;;;;9.27;5.75;;;8.60;99.90;;;;;;5047229;28;20029;-40
2023/01/03 12:31:22;;;;;;;8.57;5.85;;;8.70;99.90;;;;;;5046737;28;20052;-39
2023/01/03 12:33:56;;;;;;;6.35;5.07;;;8.70;99.90;;;;;;5027904;28;20072;-40
2023/01/03 12:36:45;;;;;;;8.15;5.22;;;8.70;99.90;;;;;;5042994;28;20052;-41
2023/01/03 12:39:53;;;;;;;7.90;5.32;;;8.80;99.90;;;;;;5026950;28;20057;-41
2023/01/03 12:42:32;;;;;;;5.15;4.63;;;8.70;99.90;;;;;;5046873;28;20033;-40
2023/01/03 12:45:07;;;;;;;5.93;4.47;;;8.80;99.90;;;;;;5046361;28;20039;-39
2023/01/03 12:48:12;;;;;;;6.95;4.65;;;8.80;99.90;;;;;;5043660;28;20029;-41
2023/01/03 12:50:49;;;;;;;8.98;5.40;;;8.80;99.90;;;;;;5042516;28;20120;-38
2023/01/03 12:53:50;;;;;;;8.20;5.72;;;8.80;99.90;;;;;;5036734;28;20036;-40
2023/01/03 12:56:44;;;;;;;7.40;5.28;;;8.80;99.90;;;;;;5042242;28;20051;-40
2023/01/03 12:59:43;;;;;;;8.50;5.90;;;8.80;99.90;;;;;;5045357;28;20098;-40
2023/01/03 13:02:24;;;;;;;8.23;6.07;;;8.80;99.90;;;;;;5046097;28;20046;-39
2023/01/03 13:04:55;;;;;;;8.52;6.40;;;8.90;99.90;;;;;;5027009;28;20393;-41
2023/01/03 13:07:29;;;;;;;9.82;7.07;;;8.90;99.90;;;;;;5040907;28;20055;-40
2023/01/03 13:09:59;;;;;;;8.93;7.13;;;8.90;99.90;;;;;;5047063;28;20480;-39
2023/01/03 13:12:29;;;;;;;10.38;7.07;;;9.00;99.90;;;;;;5046334;28;20025;-37
2023/01/03 13:15:13;;;;;;;9.25;6.88;;;9.00;99.90;;;;;;5046994;28;20032;-40
2023/01/03 13:17:47;;;;;;;8.85;6.47;;;9.00;99.90;;;;;;5046002;28;20708;-40
2023/01/03 13:20:30;;;;;;;9.57;6.25;;;9.10;99.90;;;;;;5045438;28;20069;-40
2023/01/03 13:22:58;;;;;;;8.10;5.85;;;9.10;99.90;;;;;;5046220;28;20056;-40
2023/01/03 13:25:33;;;;;;;8.00;6.00;;;9.10;99.90;;;;;;5046476;28;20041;-39
2023/01/03 13:28:04;;;;;;;6.90;6.05;;;9.10;99.90;;;;;;5045246;28;20554;-38
2023/01/03 13:30:32;;;;;;;8.85;6.15;;;9.10;99.90;;;;;;5046331;28;20036;-39
2023/01/03 13:33:10;;;;;;;8.50;6.10;;;9.10;99.90;;;;;;5045234;28;20021;-40
2023/01/03 13:36:00;;;;;;;9.05;6.10;;;9.10;99.90;;;;;;5045057;28;20092;-41
2023/01/03 13:38:36;;;;;;;10.55;6.50;;;9.10;99.90;;;;;;5046227;28;20044;-39
2023/01/03 13:41:08;;;;;;;7.35;5.35;;;9.00;99.90;;;;;;5024980;28;20025;-40
2023/01/03 13:43:35;;;;;;;5.60;4.60;;;9.00;99.90;;;;;;5040783;28;20035;-40
2023/01/03 13:46:19;;;;;;;5.65;4.22;;;9.10;99.90;;;;;;5045986;28;20305;-40
2023/01/03 13:49:03;;;;;;;6.70;4.85;;;9.10;99.90;;;;;;5045305;28;20060;-39
2023/01/03 13:51:38;;;;;;;5.18;4.13;;;9.10;99.90;;;;;;5026144;28;20057;-40
2023/01/03 13:54:34;;;;;;;6.50;3.90;;;9.10;99.90;;;;;;5040621;28;20916;-39
2023/01/03 13:57:22;;;;;;;6.43;4.15;;;9.10;99.90;;;;;;5025548;28;20469;-40
2023/01/03 13:59:47;;;;;;;5.45;3.85;;;9.20;99.90;;;;;;5044756;28;20056;-40
2023/01/03 14:02:53;;;;;;;3.80;3.40;;;9.20;99.90;;;;;;5044639;28;20048;-40
2023/01/03 14:05:57;;;;;;;5.63;3.80;;;9.20;99.90;;;;;;5042043;28;20037;-38
2023/01/03 14:08:31;;;;;;;4.82;3.28;;;9.20;99.90;;;;;;5035389;28;20029;-40
2023/01/03 14:11:00;;;;;;;3.72;3.20;;;9.30;99.90;;;;;;5045347;28;20103;-39
2023/01/03 14:13:39;;;;;;;3.92;3.22;;;9.30;99.90;;;;;;5045420;28;20029;-40
2023/01/03 14:16:16;;;;;;;5.40;3.40;;;9.30;99.90;;;;;;5034742;28;20025;-40